Time;durP1;ratioP1;P1;durP2;ratioP2;P2;SDS_P1;SDS_P2;PMS_P1;PMS_P2;Temp;Humidity;BMP_temperature;BMP_pressure;BME280_temperature;BME280_humidity;BME280_pressure;Samples;Min_cycle;Max_cycle;Signal;HPM_P1;HPM_P2
2022/10/03 00:01:21;;;;;;;2.00;0.90;;;;;;;18.00;43.00;101077.81;5084786;28;20554;-59
2022/10/03 00:04:04;;;;;;;1.33;0.80;;;;;;;17.98;43.05;101063.78;5086479;28;20382;-58
2022/10/03 00:06:59;;;;;;;2.30;0.80;;;;;;;18.03;43.06;101074.72;5067369;28;20416;-58
2022/10/03 00:09:31;;;;;;;2.47;0.90;;;;;;;18.01;43.14;101071.41;5080550;28;20397;-58
2022/10/03 00:12:12;;;;;;;1.52;0.90;;;;;;;17.98;43.44;101071.84;5073989;28;20421;-58
2022/10/03 00:14:53;;;;;;;3.03;0.85;;;;;;;17.84;43.79;101067.50;5075002;28;20399;-59
2022/10/03 00:17:36;;;;;;;3.95;0.90;;;;;;;17.99;43.61;101059.22;5082106;28;20878;-58
2022/10/03 00:20:52;;;;;;;1.67;0.80;;;;;;;18.03;43.57;101047.88;5066051;28;20384;-58
2022/10/03 00:23:25;;;;;;;2.03;0.80;;;;;;;17.99;43.88;101043.13;5042772;28;20404;-59
2022/10/03 00:26:48;;;;;;;3.13;0.75;;;;;;;18.06;43.67;101043.94;5086290;27;20850;-59
2022/10/03 00:31:45;;;;;;;2.15;0.90;;;;;;;18.09;43.71;101040.84;5092092;27;20394;-59
2022/10/03 00:34:32;;;;;;;1.70;0.85;;;;;;;18.05;44.03;101031.59;5080099;28;20499;-58
2022/10/03 00:37:17;;;;;;;1.75;0.80;;;;;;;18.05;44.04;101036.94;5080892;28;20485;-60
2022/10/03 00:43:04;;;;;;;3.20;0.90;;;;;;;18.01;44.37;101036.53;5073958;28;20939;-59
2022/10/03 00:47:52;;;;;;;2.70;0.93;;;;;;;18.01;44.41;101031.19;5093140;27;20408;-59
2022/10/03 00:50:17;;;;;;;2.63;0.97;;;;;;;18.01;44.54;101025.81;5064134;28;20412;-58
2022/10/03 00:52:54;;;;;;;1.25;0.85;;;;;;;17.96;44.86;101033.66;5065914;28;20502;-60
2022/10/03 00:55:41;;;;;;;2.15;0.80;;;;;;;18.03;44.54;101022.94;5066264;28;20437;-60
2022/10/03 00:58:22;;;;;;;2.88;1.05;;;;;;;18.04;44.56;101022.72;5066713;28;20372;-59
2022/10/03 01:03:06;;;;;;;3.28;0.90;;;;;;;18.09;44.56;101024.75;5084615;27;20404;-62
2022/10/03 01:06:05;;;;;;;1.70;0.80;;;;;;;18.06;44.74;101017.97;5066683;28;20422;-59
2022/10/03 01:08:52;;;;;;;4.05;0.90;;;;;;;18.12;44.77;101014.41;5066469;28;20466;-59
2022/10/03 01:11:39;;;;;;;2.47;1.03;;;;;;;18.17;44.55;101021.00;5066479;28;20392;-59
2022/10/03 01:14:34;;;;;;;1.70;0.80;;;;;;;18.17;44.76;101021.00;5066485;28;20950;-59
2022/10/03 01:20:23;;;;;;;1.83;1.17;;;;;;;18.20;44.93;101016.03;5095021;27;20409;-59
2022/10/03 01:24:45;;;;;;;2.28;0.93;;;;;;;18.16;45.12;101012.13;5068601;28;20414;-58
2022/10/03 01:27:14;;;;;;;1.10;0.80;;;;;;;18.21;45.12;101016.88;5066441;28;20407;-59
2022/10/03 01:33:06;;;;;;;3.05;0.90;;;;;;;18.26;44.88;101012.50;5066453;28;20479;-59
2022/10/03 01:36:01;;;;;;;2.67;1.00;;;;;;;18.22;44.97;101010.47;5065608;28;20771;-58
2022/10/03 01:38:35;;;;;;;3.05;0.90;;;;;;;18.23;44.90;101004.88;5059147;28;20404;-58
2022/10/03 01:45:42;;;;;;;2.88;1.00;;;;;;;18.25;45.14;101016.22;5033365;28;20455;-58
2022/10/03 01:49:41;;;;;;;1.45;0.90;;;;;;;18.32;45.38;101016.19;5079567;27;20461;-60
2022/10/03 01:52:30;;;;;;;1.60;0.90;;;;;;;18.29;45.39;101016.63;5054917;28;20392;-58
2022/10/03 01:55:07;;;;;;;2.58;1.00;;;;;;;18.29;45.66;101009.41;5066466;28;20392;-58
2022/10/03 01:57:46;;;;;;;3.03;1.00;;;;;;;18.29;45.72;101019.28;5066748;28;20499;-62
2022/10/03 02:00:18;;;;;;;1.83;0.90;;;;;;;18.30;45.69;101011.03;5066156;28;20386;-59
2022/10/03 02:02:58;;;;;;;1.73;0.90;;;;;;;18.31;45.70;101004.66;5066613;28;20831;-59
2022/10/03 02:05:34;;;;;;;1.25;0.82;;;;;;;18.30;45.75;101004.84;5066186;28;20403;-58
2022/10/03 02:08:04;;;;;;;1.60;0.90;;;;;;;18.30;45.60;101011.03;5066429;28;20458;-58
2022/10/03 02:10:54;;;;;;;1.00;0.70;;;;;;;18.31;45.83;101015.38;5066403;28;20384;-59
2022/10/03 02:13:48;;;;;;;6.40;1.10;;;;;;;18.31;45.62;101006.47;5066564;28;20386;-58
2022/10/03 02:16:32;;;;;;;2.90;0.90;;;;;;;18.31;45.62;101003.81;5050030;28;20451;-59
2022/10/03 02:19:10;;;;;;;2.50;0.80;;;;;;;18.31;45.76;101004.66;5064814;28;20398;-59
2022/10/03 02:21:47;;;;;;;2.63;0.90;;;;;;;18.29;45.86;101003.19;5066255;28;20850;-60
2022/10/03 02:26:16;;;;;;;1.40;1.02;;;;;;;18.37;45.93;101000.28;5099169;27;20409;-60
2022/10/03 02:29:02;;;;;;;3.58;2.40;;;;;;;18.34;46.00;100995.34;5086812;28;20443;-59
2022/10/03 02:31:37;;;;;;;5.22;2.03;;;;;;;18.37;45.75;100989.53;5086996;28;20382;-58
2022/10/03 02:34:21;;;;;;;3.22;1.27;;;;;;;18.37;45.89;100996.78;5086675;28;20468;-58
2022/10/03 02:38:00;;;;;;;2.50;1.13;;;;;;;18.34;46.00;100996.16;5073366;27;20809;-59
2022/10/03 02:45:45;;;;;;;1.42;0.90;;;;;;;18.22;46.39;101013.13;5096944;27;20417;-59
2022/10/03 02:48:48;;;;;;;1.75;1.00;;;;;;;18.32;46.18;101010.84;5086714;28;20394;-59
2022/10/03 02:51:44;;;;;;;3.00;1.07;;;;;;;18.25;46.52;101005.47;5086376;28;20389;-58
2022/10/03 02:55:40;;;;;;;2.40;1.00;;;;;;;18.17;46.70;101011.13;5099401;27;20464;-59
2022/10/03 02:59:31;;;;;;;3.05;0.90;;;;;;;18.30;46.28;101003.00;5090158;27;20415;-59
2022/10/03 03:02:24;;;;;;;2.00;0.80;;;;;;;18.40;45.98;100997.19;5052096;28;20472;-59
2022/10/03 03:08:51;;;;;;;2.70;1.13;;;;;;;18.48;45.82;100993.41;5029682;28;20796;-58
2022/10/03 03:11:17;;;;;;;2.57;1.10;;;;;;;18.47;45.57;100989.06;5026906;28;20418;-59
2022/10/03 03:14:15;;;;;;;1.75;0.82;;;;;;;18.46;45.49;100985.56;5026640;28;20397;-59
2022/10/03 03:16:54;;;;;;;4.05;1.05;;;;;;;18.51;45.39;100996.47;5026931;28;20387;-59
2022/10/03 03:19:57;;;;;;;1.70;0.80;;;;;;;18.54;45.39;100992.53;5026691;28;20942;-59
2022/10/03 03:23:14;;;;;;;2.03;0.90;;;;;;;18.57;45.30;101002.03;5071132;27;20414;-60
2022/10/03 03:28:05;;;;;;;3.95;0.90;;;;;;;18.59;45.24;100997.25;5079586;28;20411;-58
2022/10/03 03:30:50;;;;;;;1.43;0.80;;;;;;;18.61;45.22;100998.69;5066493;28;20743;-58
2022/10/03 03:33:32;;;;;;;1.95;1.08;;;;;;;18.63;45.25;101001.16;5066549;28;20400;-58
2022/10/03 03:36:18;;;;;;;2.05;0.98;;;;;;;18.60;45.47;101005.09;5052254;28;20384;-58
2022/10/03 03:40:38;;;;;;;0.98;0.70;;;;;;;18.59;45.44;100991.91;5098233;27;20753;-59
2022/10/03 03:43:14;;;;;;;2.00;0.90;;;;;;;18.63;45.44;100996.59;5086732;28;20398;-59
2022/10/03 03:45:39;;;;;;;1.13;0.80;;;;;;;18.61;45.55;100992.50;5086897;28;20941;-59
2022/10/03 03:48:36;;;;;;;2.40;0.80;;;;;;;18.59;45.81;100998.06;5080983;28;20388;-59
2022/10/03 03:51:20;;;;;;;6.82;1.50;;;;;;;18.59;45.89;100994.56;5075867;28;20772;-59
2022/10/03 03:53:54;;;;;;;4.20;0.90;;;;;;;18.52;45.85;100995.44;5081191;28;20395;-58
2022/10/03 03:56:37;;;;;;;2.22;0.80;;;;;;;18.47;46.20;100997.13;5066507;28;20874;-58
2022/10/03 03:59:41;;;;;;;1.63;0.80;;;;;;;18.46;46.01;100998.97;5093072;27;20435;-58
2022/10/03 04:05:07;;;;;;;4.88;1.10;;;;;;;18.36;45.68;101008.53;5092946;27;20946;-59
2022/10/03 04:08:12;;;;;;;2.90;0.88;;;;;;;18.39;45.46;100998.19;5064507;28;20395;-60
2022/10/03 04:11:01;;;;;;;1.80;0.70;;;;;;;18.28;45.50;101001.56;5074271;28;20434;-59
2022/10/03 04:13:35;;;;;;;2.33;1.00;;;;;;;18.14;46.09;101011.53;5067867;28;21011;-59
2022/10/03 04:16:10;;;;;;;3.60;1.00;;;;;;;18.27;46.17;101024.06;5086829;28;20420;-58
2022/10/03 04:21:43;;;;;;;2.10;0.93;;;;;;;18.18;47.23;101020.78;5055274;28;20414;-58
2022/10/03 04:24:20;;;;;;;1.80;0.95;;;;;;;18.12;47.53;101019.78;5031162;28;20787;-58
2022/10/03 04:26:52;;;;;;;1.15;1.00;;;;;;;18.00;47.84;101026.03;5003630;28;20483;-59
2022/10/03 04:29:29;;;;;;;1.35;0.90;;;;;;;18.11;47.88;101036.09;5009634;28;20398;-59
2022/10/03 04:32:33;;;;;;;2.65;1.00;;;;;;;18.07;47.82;101045.59;5006772;28;20385;-59
2022/10/03 04:35:14;;;;;;;2.00;0.88;;;;;;;18.14;47.83;101041.84;5014171;28;20391;-59
2022/10/03 04:37:48;;;;;;;3.75;1.27;;;;;;;18.22;48.27;101048.03;5046229;28;20386;-59
2022/10/03 04:40:42;;;;;;;3.58;1.15;;;;;;;18.14;48.75;101039.16;5046439;28;20441;-59
2022/10/03 04:43:40;;;;;;;3.60;1.30;;;;;;;18.15;49.48;101042.69;5046604;28;20417;-58
2022/10/03 04:46:38;;;;;;;4.37;1.13;;;;;;;18.14;50.49;101070.56;5046216;28;20378;-59
2022/10/03 04:49:21;;;;;;;3.75;1.23;;;;;;;18.04;50.89;101086.25;5045946;28;20381;-59
2022/10/03 04:56:19;;;;;;;1.98;1.00;;;;;;;17.73;52.21;101085.88;5081768;27;20403;-59
2022/10/03 04:58:55;;;;;;;4.43;1.30;;;;;;;17.70;52.41;101078.25;5053162;28;20963;-58
2022/10/03 05:01:20;;;;;;;4.18;1.80;;;;;;;17.57;53.11;101086.28;5066425;28;20384;-62
2022/10/03 05:04:10;;;;;;;3.05;1.30;;;;;;;17.59;53.16;101076.19;5066556;28;20392;-58
2022/10/03 05:06:57;;;;;;;4.50;1.50;;;;;;;17.57;53.50;101087.16;5066376;28;20492;-58
2022/10/03 05:09:53;;;;;;;4.38;1.88;;;;;;;17.54;53.92;101095.59;5066316;28;20380;-58
2022/10/03 05:12:36;;;;;;;4.32;2.15;;;;;;;17.50;54.17;101091.69;5052101;28;20778;-60
2022/10/03 05:15:46;;;;;;;4.95;2.30;;;;;;;17.53;54.19;101088.56;5063126;28;20416;-62
2022/10/03 05:18:28;;;;;;;5.38;2.33;;;;;;;17.52;54.27;101086.94;5046594;28;20420;-62
2022/10/03 05:21:14;;;;;;;4.15;2.22;;;;;;;17.55;54.42;101094.53;5062688;28;20384;-60
2022/10/03 05:24:03;;;;;;;3.65;1.70;;;;;;;17.48;54.77;101076.81;5064172;28;20947;-60
2022/10/03 05:26:52;;;;;;;3.88;1.38;;;;;;;17.54;54.89;101079.50;5055974;28;20444;-60
2022/10/03 05:29:40;;;;;;;2.77;1.00;;;;;;;17.58;54.84;101075.38;5062152;28;20884;-60
2022/10/03 05:32:39;;;;;;;5.93;1.77;;;;;;;17.51;54.84;101068.38;5065900;28;20387;-60
2022/10/03 05:35:28;;;;;;;3.57;1.40;;;;;;;17.44;55.01;101054.97;5057244;28;20415;-60
2022/10/03 05:38:11;;;;;;;2.38;0.80;;;;;;;17.50;54.75;101070.25;5064984;28;20424;-60
2022/10/03 05:40:40;;;;;;;1.60;1.10;;;;;;;17.53;54.94;101053.72;5065043;28;20380;-60
2022/10/03 05:43:43;;;;;;;4.00;0.80;;;;;;;17.52;54.75;101046.72;5062173;28;20981;-60
2022/10/03 05:46:29;;;;;;;2.17;1.20;;;;;;;17.52;54.81;101046.72;5065215;28;20463;-60
2022/10/03 05:49:09;;;;;;;2.83;1.40;;;;;;;17.51;55.00;101050.44;5064998;28;20416;-61
2022/10/03 05:51:52;;;;;;;3.40;1.05;;;;;;;17.56;54.74;101060.53;5065228;28;20445;-60
2022/10/03 05:54:46;;;;;;;3.05;1.25;;;;;;;17.61;54.37;101057.22;5065163;28;20466;-60
2022/10/03 05:57:17;;;;;;;2.25;1.10;;;;;;;17.61;54.41;101066.09;5065080;28;20836;-69
2022/10/03 06:00:07;;;;;;;2.75;1.13;;;;;;;17.68;54.30;101068.75;5054601;28;20402;-61
2022/10/03 06:02:54;;;;;;;1.80;1.13;;;;;;;17.70;54.14;101054.13;5063757;28;20472;-61
2022/10/03 06:06:01;;;;;;;4.28;1.35;;;;;;;17.85;53.81;101069.16;5061937;28;20415;-60
2022/10/03 06:09:47;;;;;;;3.40;1.65;;;;;;;17.98;53.75;101074.50;5072949;27;20959;-59
2022/10/03 06:12:29;;;;;;;3.13;1.70;;;;;;;18.07;53.69;101077.78;5064679;28;20420;-61
2022/10/03 06:17:29;;;;;;;4.85;1.60;;;;;;;18.26;53.63;101086.84;5032511;28;20411;-59
2022/10/03 06:20:10;;;;;;;6.93;2.17;;;;;;;18.36;53.59;101089.06;5024134;28;20896;-60
2022/10/03 06:23:05;;;;;;;4.88;1.83;;;;;;;18.33;53.50;101101.06;5025454;28;20383;-60
2022/10/03 06:25:55;;;;;;;3.63;1.05;;;;;;;18.33;53.19;101093.81;5096995;27;20823;-59
2022/10/03 06:28:41;;;;;;;2.10;1.00;;;;;;;18.44;52.90;101083.44;5080857;28;20781;-59
2022/10/03 06:34:40;;;;;;;1.63;0.90;;;;;;;18.86;51.46;101098.13;5069564;27;20462;-60
2022/10/03 06:37:24;;;;;;;2.50;1.00;;;;;;;18.89;51.30;101104.97;5065247;28;20838;-60
2022/10/03 06:41:42;;;;;;;1.38;0.77;;;;;;;19.04;50.75;101108.16;5074391;27;21031;-60
2022/10/03 06:44:20;;;;;;;2.85;0.90;;;;;;;18.97;50.92;101122.69;5048785;28;20561;-63
2022/10/03 06:46:46;;;;;;;1.40;0.60;;;;;;;18.95;50.84;101135.50;5065010;28;20398;-60
2022/10/03 06:49:18;;;;;;;3.25;1.00;;;;;;;19.10;50.47;101131.50;5066229;28;20750;-61
2022/10/03 06:51:59;;;;;;;1.50;0.88;;;;;;;19.25;49.91;101128.50;5066351;28;20908;-60
2022/10/03 06:55:03;;;;;;;3.47;1.10;;;;;;;19.61;49.47;101132.34;5068079;28;20387;-59
2022/10/03 06:57:56;;;;;;;2.08;0.77;;;;;;;19.88;48.64;101140.22;5067611;28;20471;-61
2022/10/03 07:00:46;;;;;;;2.22;1.30;;;;;;;20.68;47.15;101139.38;5067084;28;20423;-60
2022/10/03 07:03:36;;;;;;;2.42;1.15;;;;;;;21.36;45.73;101137.38;5070967;28;20397;-60
2022/10/03 07:06:19;;;;;;;2.20;1.00;;;;;;;21.91;44.81;101134.41;5067199;28;20412;-61
2022/10/03 07:09:21;;;;;;;1.58;0.77;;;;;;;21.92;44.36;101127.94;5066467;28;21869;-60
2022/10/03 07:12:18;;;;;;;1.70;0.75;;;;;;;22.04;43.79;101127.09;5069734;28;20381;-60
2022/10/03 07:15:58;;;;;;;1.42;0.70;;;;;;;22.14;43.86;101127.34;5094368;27;20412;-60
2022/10/03 07:18:29;;;;;;;1.48;0.90;;;;;;;22.11;43.85;101130.50;5074460;28;20438;-64
2022/10/03 07:21:00;;;;;;;0.80;0.70;;;;;;;22.03;43.31;101131.69;5075471;28;20477;-60
2022/10/03 07:23:40;;;;;;;2.70;0.70;;;;;;;22.01;43.13;101133.00;5084652;28;20386;-60
2022/10/03 07:26:25;;;;;;;1.65;1.00;;;;;;;22.19;42.86;101130.16;5075881;28;20448;-61
2022/10/03 07:29:15;;;;;;;1.00;0.60;;;;;;;22.49;42.16;101132.72;5085866;28;20458;-60
2022/10/03 07:31:49;;;;;;;1.83;0.82;;;;;;;22.86;41.42;101126.13;5086541;28;20883;-60
2022/10/03 07:35:02;;;;;;;2.90;0.90;;;;;;;23.11;41.29;101124.97;5085019;28;20414;-60
2022/10/03 07:40:55;;;;;;;1.75;0.90;;;;;;;23.26;40.13;101123.34;5075896;28;20486;-60
2022/10/03 07:43:56;;;;;;;1.50;0.70;;;;;;;23.67;39.40;101134.81;5071924;28;20528;-60
2022/10/03 07:46:34;;;;;;;2.00;0.80;;;;;;;23.57;39.16;101141.94;5002486;28;20412;-60
2022/10/03 07:52:14;;;;;;;2.55;0.70;;;;;;;23.37;39.00;101151.41;5055503;28;20772;-60
2022/10/03 07:55:16;;;;;;;2.15;0.82;;;;;;;23.74;38.19;101145.47;5034676;28;20401;-61
2022/10/03 07:58:17;;;;;;;2.88;0.60;;;;;;;23.66;37.11;101140.50;5044281;28;20771;-60
2022/10/03 08:01:31;;;;;;;3.25;0.80;;;;;;;23.76;37.37;101146.03;5038599;28;20401;-60
2022/10/03 08:04:33;;;;;;;1.23;0.50;;;;;;;23.46;36.89;101136.41;5024134;28;20410;-60
2022/10/03 08:07:25;;;;;;;2.50;0.70;;;;;;;23.32;37.47;101129.66;5040118;28;20488;-60
2022/10/03 08:10:09;;;;;;;1.73;0.70;;;;;;;23.32;37.35;101132.38;5043692;28;20446;-59
2022/10/03 08:13:01;;;;;;;2.20;0.90;;;;;;;23.36;37.35;101130.81;5025075;28;20490;-60
2022/10/03 08:15:45;;;;;;;2.92;0.60;;;;;;;23.37;37.07;101134.31;5031546;28;20464;-59
2022/10/03 08:18:32;;;;;;;2.40;0.70;;;;;;;23.30;36.99;101129.09;5034940;28;20423;-60
2022/10/03 08:21:02;;;;;;;2.17;0.68;;;;;;;23.18;37.36;101133.75;5046185;28;20522;-60
2022/10/03 08:24:05;;;;;;;2.83;0.65;;;;;;;23.19;36.82;101116.44;5031844;28;20446;-60
2022/10/03 08:26:42;;;;;;;2.85;0.98;;;;;;;23.07;37.30;101127.34;5037468;28;20477;-60
2022/10/03 08:29:27;;;;;;;2.63;1.15;;;;;;;23.24;37.26;101117.34;5040305;28;20386;-60
2022/10/03 08:32:27;;;;;;;3.10;0.90;;;;;;;23.23;37.22;101115.72;5032679;28;20386;-60
2022/10/03 08:34:58;;;;;;;4.07;1.20;;;;;;;23.36;36.86;101117.28;5040123;28;20914;-60
2022/10/03 08:38:01;;;;;;;3.45;1.67;;;;;;;23.41;37.06;101119.25;5026963;28;20383;-60
2022/10/03 08:40:36;;;;;;;4.38;1.10;;;;;;;23.47;36.76;101121.78;5026003;28;20399;-59
2022/10/03 08:43:26;;;;;;;2.10;1.38;;;;;;;23.29;37.13;101116.63;5025381;28;20411;-59
2022/10/03 08:46:00;;;;;;;1.13;1.00;;;;;;;23.14;36.89;101137.97;5026000;28;20388;-59
2022/10/03 08:48:44;;;;;;;2.90;1.30;;;;;;;23.07;36.72;101138.97;5044414;28;20382;-60
2022/10/03 08:54:07;;;;;;;2.45;1.27;;;;;;;23.00;36.65;101129.34;5095823;27;20407;-60
2022/10/03 08:57:05;;;;;;;3.47;1.50;;;;;;;22.95;37.11;101129.25;5085965;28;20399;-60
2022/10/03 08:59:37;;;;;;;1.30;1.20;;;;;;;22.99;37.09;101147.44;5080798;28;20400;-61
2022/10/03 09:02:20;;;;;;;2.65;1.10;;;;;;;22.88;36.39;101148.31;5084502;28;20923;-60
2022/10/03 09:09:30;;;;;;;3.30;1.20;;;;;;;22.93;36.75;101148.41;5076807;27;20448;-60
2022/10/03 09:12:16;;;;;;;3.00;1.20;;;;;;;22.87;36.81;101150.19;5067154;28;20392;-60
2022/10/03 09:15:04;;;;;;;3.13;1.30;;;;;;;22.85;37.24;101144.22;5066524;28;20380;-60
2022/10/03 09:17:51;;;;;;;1.67;1.10;;;;;;;22.82;36.55;101150.09;5065548;28;20419;-60
2022/10/03 09:20:47;;;;;;;2.20;1.30;;;;;;;22.83;36.29;101149.06;5072323;28;20478;-59
2022/10/03 09:23:31;;;;;;;2.15;1.42;;;;;;;22.61;36.94;101148.88;5065983;28;20835;-60
2022/10/03 09:26:23;;;;;;;1.85;1.30;;;;;;;22.69;36.66;101147.69;5060106;28;20400;-60
2022/10/03 09:29:25;;;;;;;1.67;1.15;;;;;;;22.82;36.67;101147.41;5066276;28;20805;-59
2022/10/03 09:32:09;;;;;;;3.30;1.40;;;;;;;22.87;36.17;101136.69;5066060;28;20392;-60
2022/10/03 09:34:46;;;;;;;1.87;1.30;;;;;;;22.80;35.26;101136.00;5066388;28;20466;-61
2022/10/03 09:37:39;;;;;;;2.63;1.35;;;;;;;22.77;35.32;101141.06;5065878;28;20920;-60
2022/10/03 09:40:20;;;;;;;5.05;1.00;;;;;;;22.80;35.13;101154.13;5052533;28;20388;-60
2022/10/03 09:43:10;;;;;;;2.90;1.00;;;;;;;22.81;34.72;101161.97;5066170;28;20395;-61
2022/10/03 09:46:03;;;;;;;5.07;1.17;;;;;;;22.90;34.66;101159.69;5066111;28;20391;-61
2022/10/03 09:48:38;;;;;;;5.00;0.90;;;;;;;22.81;34.36;101164.66;5065398;28;20420;-59
2022/10/03 09:51:18;;;;;;;2.55;0.90;;;;;;;22.62;33.95;101153.22;5066044;28;20758;-60
2022/10/03 09:54:08;;;;;;;2.42;1.10;;;;;;;22.55;34.02;101152.53;5065950;28;20451;-61
2022/10/03 09:57:02;;;;;;;1.50;0.98;;;;;;;22.51;33.81;101151.38;5065523;28;20380;-60
2022/10/03 10:02:27;;;;;;;2.70;1.08;;;;;;;22.69;33.34;101153.91;5081078;27;20412;-63
2022/10/03 10:05:37;;;;;;;2.67;1.15;;;;;;;22.67;33.18;101156.03;5060460;28;20821;-60
2022/10/03 10:08:24;;;;;;;3.08;1.00;;;;;;;22.74;33.10;101158.56;5049242;28;20429;-59
2022/10/03 10:11:17;;;;;;;4.85;0.88;;;;;;;22.75;32.84;101157.53;5065916;28;20412;-59
2022/10/03 10:13:57;;;;;;;1.27;0.75;;;;;;;22.56;33.33;101148.75;5065508;28;20441;-59
2022/10/03 10:16:53;;;;;;;2.30;0.93;;;;;;;22.52;33.29;101158.41;5064540;28;20455;-60
2022/10/03 10:19:31;;;;;;;2.80;1.30;;;;;;;22.44;33.43;101148.00;5065777;28;20450;-61
2022/10/03 10:21:59;;;;;;;1.77;0.90;;;;;;;22.59;33.84;101136.69;5056269;28;20496;-59
2022/10/03 10:25:02;;;;;;;2.28;0.90;;;;;;;22.59;33.22;101161.00;5061120;28;20390;-59
2022/10/03 10:27:58;;;;;;;2.45;0.88;;;;;;;22.60;33.09;101151.81;5053633;28;20737;-62
2022/10/03 10:31:33;;;;;;;5.18;2.00;;;;;;;22.63;33.54;101151.34;5045841;28;20474;-59
2022/10/03 10:34:30;;;;;;;2.70;1.20;;;;;;;;;;5026776;28;20506;-59
2022/10/03 10:37:17;;;;;;;2.25;0.90;;;;;;;22.61;33.44;101153.47;4984379;28;20388;-60
2022/10/03 10:40:20;;;;;;;2.37;0.90;;;;;;;22.41;33.38;101159.28;5020613;28;20397;-61
2022/10/03 10:43:34;;;;;;;1.17;0.80;;;;;;;22.27;33.99;101166.78;5021431;28;20961;-61
2022/10/03 10:46:31;;;;;;;1.13;0.70;;;;;;;22.28;34.19;101163.88;4990997;28;20412;-59
2022/10/03 10:49:37;;;;;;;3.00;1.00;;;;;;;22.27;34.46;101150.59;5016429;28;20399;-60
2022/10/03 10:55:11;;;;;;;1.27;0.70;;;;;;;22.06;33.60;101152.03;5089755;27;20410;-60
2022/10/03 10:58:29;;;;;;;1.67;0.80;;;;;;;22.06;33.91;101146.63;5075866;28;20485;-61
2022/10/03 11:01:32;;;;;;;2.08;1.10;;;;;;;22.14;33.60;101144.34;5086854;28;20463;-60
2022/10/03 11:04:10;;;;;;;2.53;1.00;;;;;;;22.01;33.60;101146.50;5086570;28;20386;-60
2022/10/03 11:07:27;;;;;;;3.00;1.20;;;;;;;21.85;34.22;101146.13;5072699;28;20540;-60
2022/10/03 11:10:26;;;;;;;7.03;2.43;;;;;;;21.75;34.17;101135.94;5063352;28;20482;-60
2022/10/03 11:13:15;;;;;;;2.47;1.10;;;;;;;21.81;34.36;101139.56;5076318;28;20446;-60
2022/10/03 11:17:53;;;;;;;2.38;0.90;;;;;;;21.86;34.09;101130.75;5051543;28;20466;-60
2022/10/03 11:20:39;;;;;;;2.70;0.98;;;;;;;21.85;33.72;101126.44;5046823;28;20410;-60
2022/10/03 11:23:39;;;;;;;1.98;0.93;;;;;;;21.85;34.01;101124.53;5046507;28;20492;-63
2022/10/03 11:26:10;;;;;;;5.45;0.90;;;;;;;21.80;33.92;101127.13;5035138;28;20389;-59
2022/10/03 11:29:13;;;;;;;2.78;1.00;;;;;;;21.83;34.03;101121.25;5046201;28;20479;-60
2022/10/03 11:34:01;;;;;;;3.05;0.90;;;;;;;21.93;33.63;101116.09;5045577;28;20460;-60
2022/10/03 11:36:47;;;;;;;3.70;0.90;;;;;;;22.01;33.85;101122.22;5026738;28;20402;-60
2022/10/03 11:39:21;;;;;;;1.88;0.90;;;;;;;22.00;33.62;101107.88;5013523;28;20401;-61
2022/10/03 11:42:10;;;;;;;3.10;0.80;;;;;;;22.04;33.01;101100.13;5013861;28;20437;-61
2022/10/03 11:44:43;;;;;;;1.40;0.87;;;;;;;22.11;32.97;101112.44;5026524;28;20897;-61
2022/10/03 11:47:18;;;;;;;1.95;0.70;;;;;;;22.17;32.63;101115.25;5017755;28;20381;-61
2022/10/03 11:50:13;;;;;;;1.75;0.70;;;;;;;22.20;32.75;101112.91;5022763;28;20442;-61
2022/10/03 11:53:13;;;;;;;3.53;0.82;;;;;;;22.09;32.92;101114.56;5026632;28;20422;-67
2022/10/03 11:55:50;;;;;;;1.00;0.75;;;;;;;22.01;32.95;101116.81;5015391;28;20442;-61
2022/10/03 11:58:41;;;;;;;1.90;0.82;;;;;;;22.06;32.88;101114.22;5026156;28;20392;-60
2022/10/03 12:01:33;;;;;;;1.63;0.73;;;;;;;22.01;33.09;101119.50;5026430;28;20390;-59
2022/10/03 12:04:26;;;;;;;2.40;0.82;;;;;;;21.94;33.44;101123.13;5026184;28;20769;-60
2022/10/03 12:10:26;;;;;;;4.18;0.93;;;;;;;21.83;33.82;101117.75;5025754;28;20438;-60
2022/10/03 12:12:54;;;;;;;2.10;0.82;;;;;;;21.90;33.83;101132.75;5015660;28;20992;-60
2022/10/03 12:15:53;;;;;;;2.38;0.70;;;;;;;21.84;33.72;101131.03;5022932;28;20522;-61
2022/10/03 12:18:41;;;;;;;1.63;0.70;;;;;;;21.96;33.43;101131.00;5012703;28;20389;-59
2022/10/03 12:21:18;;;;;;;2.95;0.70;;;;;;;21.96;33.15;101131.00;5014920;28;20384;-60
2022/10/03 12:23:58;;;;;;;0.87;0.60;;;;;;;21.87;33.22;101127.00;5026017;28;20904;-60
2022/10/03 12:26:37;;;;;;;3.33;0.70;;;;;;;21.70;33.37;101132.31;5026018;28;20884;-60
2022/10/03 12:29:07;;;;;;;1.80;0.60;;;;;;;21.54;33.81;101128.41;5025744;28;20403;-60
2022/10/03 12:31:44;;;;;;;1.47;0.83;;;;;;;21.57;34.11;101144.97;5025412;28;20427;-61
2022/10/03 12:34:30;;;;;;;2.40;0.90;;;;;;;21.45;34.14;101140.56;5025608;28;20409;-60
2022/10/03 12:37:09;;;;;;;2.22;0.80;;;;;;;21.38;34.22;101129.88;5021934;28;20371;-60
2022/10/03 12:39:44;;;;;;;2.90;0.77;;;;;;;21.24;34.62;101133.84;5025283;28;20391;-59
2022/10/03 12:42:25;;;;;;;1.03;0.60;;;;;;;21.12;35.07;101131.94;5026055;28;20932;-60
2022/10/03 12:45:04;;;;;;;1.60;0.70;;;;;;;21.09;35.73;101131.56;5012411;28;20384;-60
2022/10/03 12:48:06;;;;;;;2.40;0.87;;;;;;;20.99;36.08;101124.88;5013547;28;20384;-61
2022/10/03 12:50:53;;;;;;;3.30;0.70;;;;;;;20.95;36.34;101114.75;5001544;28;20450;-60
2022/10/03 12:53:24;;;;;;;2.67;1.00;;;;;;;21.08;36.04;101114.56;5012119;28;20562;-60
2022/10/03 12:56:03;;;;;;;3.30;0.90;;;;;;;21.05;36.17;101112.34;5012195;28;20392;-60
2022/10/03 12:59:09;;;;;;;1.90;0.70;;;;;;;20.98;36.05;101109.72;5011751;28;20384;-59
2022/10/03 13:01:53;;;;;;;1.63;0.70;;;;;;;20.92;36.02;101110.66;4994720;28;20395;-61
2022/10/03 13:04:28;;;;;;;2.33;0.80;;;;;;;21.03;36.17;101116.31;5011567;28;20435;-59
2022/10/03 13:07:00;;;;;;;1.70;0.70;;;;;;;20.97;35.87;101105.38;5011796;28;20420;-62
2022/10/03 13:09:35;;;;;;;2.90;0.70;;;;;;;21.07;35.84;101109.38;5010725;28;20388;-60
2022/10/03 13:12:15;;;;;;;1.30;0.70;;;;;;;21.07;35.64;101110.22;5011493;28;20976;-60
2022/10/03 13:14:47;;;;;;;2.03;0.80;;;;;;;20.92;35.60;101112.50;5011779;28;20442;-60
2022/10/03 13:17:48;;;;;;;4.10;0.80;;;;;;;20.86;35.94;101116.94;5004318;28;20504;-60
2022/10/03 13:23:35;;;;;;;3.03;1.00;;;;;;;20.91;35.77;101108.19;5052810;28;20983;-60
2022/10/03 13:26:13;;;;;;;2.53;0.70;;;;;;;20.90;35.88;101110.03;5044904;28;20417;-59
2022/10/03 13:29:11;;;;;;;1.35;0.60;;;;;;;20.84;35.69;101105.59;5041929;28;20814;-60
2022/10/03 13:31:47;;;;;;;2.58;1.10;;;;;;;20.97;35.95;101112.66;5034313;28;20759;-60
2022/10/03 13:34:22;;;;;;;2.00;0.93;;;;;;;21.17;35.63;101106.97;5033674;28;20439;-62
2022/10/03 13:37:16;;;;;;;1.35;0.90;;;;;;;21.20;35.82;101114.59;5038289;28;20482;-60
2022/10/03 13:39:52;;;;;;;1.90;0.80;;;;;;;21.14;35.76;101104.72;5043664;28;20382;-60
2022/10/03 13:42:40;;;;;;;2.92;0.70;;;;;;;21.16;35.59;101097.25;5034694;28;20414;-61
2022/10/03 13:45:19;;;;;;;1.70;0.80;;;;;;;21.14;35.59;101100.16;5040028;28;20470;-61
2022/10/03 13:48:03;;;;;;;2.03;0.70;;;;;;;21.24;35.34;101107.69;5040029;28;20464;-60
2022/10/03 13:50:46;;;;;;;2.00;0.70;;;;;;;21.27;35.68;101115.31;5035851;28;20386;-61
2022/10/03 13:53:42;;;;;;;2.30;0.70;;;;;;;21.33;35.58;101108.19;5033177;28;20967;-61
2022/10/03 13:56:19;;;;;;;1.88;0.90;;;;;;;21.30;35.76;101105.94;5036914;28;20515;-60
2022/10/03 14:01:33;;;;;;;1.95;0.70;;;;;;;21.25;35.57;101103.94;5088131;27;20814;-60
2022/10/03 14:04:04;;;;;;;1.65;0.80;;;;;;;21.23;35.75;101107.91;5042796;28;20414;-60
2022/10/03 14:06:53;;;;;;;2.50;0.80;;;;;;;21.29;35.82;101099.72;5065196;28;20422;-61
2022/10/03 14:09:36;;;;;;;2.05;0.80;;;;;;;21.34;35.74;101090.94;5065231;28;20457;-60
2022/10/03 14:12:25;;;;;;;3.92;1.10;;;;;;;21.36;35.53;101097.75;5066056;28;20472;-60
2022/10/03 14:16:31;;;;;;;2.67;0.90;;;;;;;21.47;34.94;101096.16;5088033;27;20403;-60
2022/10/03 14:19:35;;;;;;;1.85;0.70;;;;;;;21.58;35.00;101094.50;5094069;27;20781;-61
2022/10/03 14:22:24;;;;;;;3.75;0.80;;;;;;;21.54;34.77;101096.84;5071448;28;20400;-61
2022/10/03 14:25:20;;;;;;;3.87;0.70;;;;;;;21.56;34.74;101093.94;5066519;28;20427;-60
2022/10/03 14:28:28;;;;;;;1.40;0.90;;;;;;;21.56;34.58;101099.31;5065088;28;20374;-61